sensor_id;sensor_type;location;lat;lon;timestamp;temperature;humidity
19292;DHT22;9779;51.756;7.450;2024-03-23T00:53:16;7.90;1.00
19292;DHT22;9779;51.756;7.450;2024-03-23T00:55:42;7.90;1.00
19292;DHT22;9779;51.756;7.450;2024-03-23T00:58:08;7.80;1.00
19292;DHT22;9779;51.756;7.450;2024-03-23T01:00:34;7.80;1.00
19292;DHT22;9779;51.756;7.450;2024-03-23T01:02:59;7.80;1.00
19292;DHT22;9779;51.756;7.450;2024-03-23T01:05:25;7.80;1.00
19292;DHT22;9779;51.756;7.450;2024-03-23T01:07:50;7.80;1.00
19292;DHT22;9779;51.756;7.450;2024-03-23T01:10:16;7.80;1.00
19292;DHT22;9779;51.756;7.450;2024-03-23T01:12:42;7.70;1.00
19292;DHT22;9779;51.756;7.450;2024-03-23T01:15:08;7.70;1.00
19292;DHT22;9779;51.756;7.450;2024-03-23T01:17:33;7.80;1.00
19292;DHT22;9779;51.756;7.450;2024-03-23T01:20:02;7.80;1.00
19292;DHT22;9779;51.756;7.450;2024-03-23T01:22:28;7.90;1.00
19292;DHT22;9779;51.756;7.450;2024-03-23T01:24:53;7.80;1.00
19292;DHT22;9779;51.756;7.450;2024-03-23T01:27:19;7.80;1.00
19292;DHT22;9779;51.756;7.450;2024-03-23T02:53:06;7.10;1.00
19292;DHT22;9779;51.756;7.450;2024-03-23T04:11:11;6.90;1.00
19292;DHT22;9779;51.756;7.450;2024-03-23T05:04:46;6.30;1.00
19292;DHT22;9779;51.756;7.450;2024-03-23T05:07:12;6.20;1.00
19292;DHT22;9779;51.756;7.450;2024-03-23T05:09:38;6.20;1.00
19292;DHT22;9779;51.756;7.450;2024-03-23T05:12:03;6.20;1.00
19292;DHT22;9779;51.756;7.450;2024-03-23T05:14:29;6.10;1.00
19292;DHT22;9779;51.756;7.450;2024-03-23T05:16:55;6.10;1.00
19292;DHT22;9779;51.756;7.450;2024-03-23T05:19:21;6.00;1.00
19292;DHT22;9779;51.756;7.450;2024-03-23T05:21:47;6.10;1.00
19292;DHT22;9779;51.756;7.450;2024-03-23T05:24:13;6.00;1.00
19292;DHT22;9779;51.756;7.450;2024-03-23T05:26:39;6.00;1.00
19292;DHT22;9779;51.756;7.450;2024-03-23T05:29:04;6.10;33.70
19292;DHT22;9779;51.756;7.450;2024-03-23T05:31:32;6.00;21.40
19292;DHT22;9779;51.756;7.450;2024-03-23T05:33:58;6.00;55.80
19292;DHT22;9779;51.756;7.450;2024-03-23T05:36:23;6.00;49.20
19292;DHT22;9779;51.756;7.450;2024-03-23T05:38:50;6.10;93.80
19292;DHT22;9779;51.756;7.450;2024-03-23T05:41:15;6.00;90.00
19292;DHT22;9779;51.756;7.450;2024-03-23T05:43:41;6.10;99.90
19292;DHT22;9779;51.756;7.450;2024-03-23T05:46:07;6.10;99.90
19292;DHT22;9779;51.756;7.450;2024-03-23T05:48:35;6.00;99.90
19292;DHT22;9779;51.756;7.450;2024-03-23T05:51:01;6.00;99.90
19292;DHT22;9779;51.756;7.450;2024-03-23T05:53:27;6.00;99.90
19292;DHT22;9779;51.756;7.450;2024-03-23T05:56:04;5.90;99.90
19292;DHT22;9779;51.756;7.450;2024-03-23T05:58:30;6.00;99.90
19292;DHT22;9779;51.756;7.450;2024-03-23T06:01:00;5.90;99.90
19292;DHT22;9779;51.756;7.450;2024-03-23T06:03:30;5.90;99.90
19292;DHT22;9779;51.756;7.450;2024-03-23T06:05:56;5.90;99.90
19292;DHT22;9779;51.756;7.450;2024-03-23T06:08:22;5.90;99.90
19292;DHT22;9779;51.756;7.450;2024-03-23T06:10:48;5.90;99.90
19292;DHT22;9779;51.756;7.450;2024-03-23T06:13:14;5.90;99.90
19292;DHT22;9779;51.756;7.450;2024-03-23T06:15:40;6.00;99.90
19292;DHT22;9779;51.756;7.450;2024-03-23T06:18:06;5.90;99.90
19292;DHT22;9779;51.756;7.450;2024-03-23T06:20:33;5.90;99.90
19292;DHT22;9779;51.756;7.450;2024-03-23T06:23:00;5.90;99.90
19292;DHT22;9779;51.756;7.450;2024-03-23T06:25:26;5.90;99.90
19292;DHT22;9779;51.756;7.450;2024-03-23T06:27:51;5.90;99.90
19292;DHT22;9779;51.756;7.450;2024-03-23T06:30:17;5.90;99.90
19292;DHT22;9779;51.756;7.450;2024-03-23T06:32:43;5.80;99.90
19292;DHT22;9779;51.756;7.450;2024-03-23T06:35:08;5.90;99.90
19292;DHT22;9779;51.756;7.450;2024-03-23T06:37:36;5.80;99.90
19292;DHT22;9779;51.756;7.450;2024-03-23T06:40:01;5.80;99.90
19292;DHT22;9779;51.756;7.450;2024-03-23T06:42:27;5.90;99.90
19292;DHT22;9779;51.756;7.450;2024-03-23T06:44:53;5.90;99.90
19292;DHT22;9779;51.756;7.450;2024-03-23T06:47:19;5.90;99.90
19292;DHT22;9779;51.756;7.450;2024-03-23T06:49:44;5.90;99.90
19292;DHT22;9779;51.756;7.450;2024-03-23T06:52:10;6.00;99.90
19292;DHT22;9779;51.756;7.450;2024-03-23T06:54:36;6.00;99.90
19292;DHT22;9779;51.756;7.450;2024-03-23T06:57:01;5.90;99.90
19292;DHT22;9779;51.756;7.450;2024-03-23T06:59:27;5.90;99.90
19292;DHT22;9779;51.756;7.450;2024-03-23T07:01:52;6.00;99.90
19292;DHT22;9779;51.756;7.450;2024-03-23T07:04:18;6.00;99.90
19292;DHT22;9779;51.756;7.450;2024-03-23T07:06:44;6.00;99.90
19292;DHT22;9779;51.756;7.450;2024-03-23T07:09:10;6.00;99.90
19292;DHT22;9779;51.756;7.450;2024-03-23T07:11:36;6.00;99.90
19292;DHT22;9779;51.756;7.450;2024-03-23T07:14:01;6.00;99.90
19292;DHT22;9779;51.756;7.450;2024-03-23T07:16:28;6.00;99.90
19292;DHT22;9779;51.756;7.450;2024-03-23T07:18:54;6.10;99.90
19292;DHT22;9779;51.756;7.450;2024-03-23T07:21:19;6.10;99.90
19292;DHT22;9779;51.756;7.450;2024-03-23T07:23:45;6.20;99.90
19292;DHT22;9779;51.756;7.450;2024-03-23T07:26:11;6.20;99.90
19292;DHT22;9779;51.756;7.450;2024-03-23T07:28:37;6.20;99.90
19292;DHT22;9779;51.756;7.450;2024-03-23T07:31:13;6.30;99.90
19292;DHT22;9779;51.756;7.450;2024-03-23T07:33:45;6.30;99.90
19292;DHT22;9779;51.756;7.450;2024-03-23T07:36:11;6.40;99.90
19292;DHT22;9779;51.756;7.450;2024-03-23T07:38:37;6.40;99.90
19292;DHT22;9779;51.756;7.450;2024-03-23T07:41:06;6.40;99.90
19292;DHT22;9779;51.756;7.450;2024-03-23T07:43:32;6.40;99.90
19292;DHT22;9779;51.756;7.450;2024-03-23T07:45:59;6.50;99.90
19292;DHT22;9779;51.756;7.450;2024-03-23T07:48:25;6.50;99.90
19292;DHT22;9779;51.756;7.450;2024-03-23T07:51:00;6.50;99.90
19292;DHT22;9779;51.756;7.450;2024-03-23T07:53:27;6.60;99.90
19292;DHT22;9779;51.756;7.450;2024-03-23T07:55:58;6.60;99.90
19292;DHT22;9779;51.756;7.450;2024-03-23T07:58:25;6.70;99.90
19292;DHT22;9779;51.756;7.450;2024-03-23T08:00:50;6.70;99.90
19292;DHT22;9779;51.756;7.450;2024-03-23T08:03:16;6.70;98.20
19292;DHT22;9779;51.756;7.450;2024-03-23T08:05:42;6.80;67.40
19292;DHT22;9779;51.756;7.450;2024-03-23T08:08:08;6.80;1.00
19292;DHT22;9779;51.756;7.450;2024-03-23T08:10:33;6.90;1.00
19292;DHT22;9779;51.756;7.450;2024-03-23T08:12:59;7.00;1.00
19292;DHT22;9779;51.756;7.450;2024-03-23T08:15:25;7.10;1.00
19292;DHT22;9779;51.756;7.450;2024-03-23T08:17:50;7.10;1.00
19292;DHT22;9779;51.756;7.450;2024-03-23T08:20:17;7.20;1.00
19292;DHT22;9779;51.756;7.450;2024-03-23T08:22:43;7.10;1.00
19292;DHT22;9779;51.756;7.450;2024-03-23T08:25:08;7.10;1.00
19292;DHT22;9779;51.756;7.450;2024-03-23T08:27:34;7.10;99.90
19292;DHT22;9779;51.756;7.450;2024-03-23T08:29:59;7.20;99.90
19292;DHT22;9779;51.756;7.450;2024-03-23T08:32:25;7.30;99.90
19292;DHT22;9779;51.756;7.450;2024-03-23T08:34:51;7.40;99.90
19292;DHT22;9779;51.756;7.450;2024-03-23T08:37:16;7.50;1.00
19292;DHT22;9779;51.756;7.450;2024-03-23T08:39:44;7.60;99.90
19292;DHT22;9779;51.756;7.450;2024-03-23T08:42:10;7.60;1.00
19292;DHT22;9779;51.756;7.450;2024-03-23T08:44:36;7.70;6.70
19292;DHT22;9779;51.756;7.450;2024-03-23T08:47:01;7.70;99.90
19292;DHT22;9779;51.756;7.450;2024-03-23T08:49:27;7.70;99.90
19292;DHT22;9779;51.756;7.450;2024-03-23T08:51:53;7.70;9.70
19292;DHT22;9779;51.756;7.450;2024-03-23T08:54:19;7.70;99.90
19292;DHT22;9779;51.756;7.450;2024-03-23T08:56:46;7.80;99.90
19292;DHT22;9779;51.756;7.450;2024-03-23T08:59:11;7.90;1.00
19292;DHT22;9779;51.756;7.450;2024-03-23T09:01:37;7.90;1.00
19292;DHT22;9779;51.756;7.450;2024-03-23T09:04:03;8.00;1.00
19292;DHT22;9779;51.756;7.450;2024-03-23T09:08:58;8.20;1.00
19292;DHT22;9779;51.756;7.450;2024-03-23T09:11:23;8.30;99.90
19292;DHT22;9779;51.756;7.450;2024-03-23T09:13:49;8.30;1.00
19292;DHT22;9779;51.756;7.450;2024-03-23T09:16:14;8.20;99.90
19292;DHT22;9779;51.756;7.450;2024-03-23T09:18:40;8.10;1.00
19292;DHT22;9779;51.756;7.450;2024-03-23T09:21:12;8.10;1.00
19292;DHT22;9779;51.756;7.450;2024-03-23T09:23:38;7.80;1.00
19292;DHT22;9779;51.756;7.450;2024-03-23T09:26:04;7.30;99.90
19292;DHT22;9779;51.756;7.450;2024-03-23T09:28:30;7.00;99.90
19292;DHT22;9779;51.756;7.450;2024-03-23T09:31:05;7.00;63.20
19292;DHT22;9779;51.756;7.450;2024-03-23T09:33:31;7.00;1.00
19292;DHT22;9779;51.756;7.450;2024-03-23T09:35:57;7.00;1.00
19292;DHT22;9779;51.756;7.450;2024-03-23T09:38:23;7.00;99.90
19292;DHT22;9779;51.756;7.450;2024-03-23T09:40:53;7.20;1.00
19292;DHT22;9779;51.756;7.450;2024-03-23T09:43:19;7.40;1.00
19292;DHT22;9779;51.756;7.450;2024-03-23T09:45:45;7.50;1.00
19292;DHT22;9779;51.756;7.450;2024-03-23T09:48:12;7.60;99.90
19292;DHT22;9779;51.756;7.450;2024-03-23T09:50:38;7.80;99.90
19292;DHT22;9779;51.756;7.450;2024-03-23T09:53:08;7.90;1.00
19292;DHT22;9779;51.756;7.450;2024-03-23T09:55:34;7.90;1.00
19292;DHT22;9779;51.756;7.450;2024-03-23T09:58:03;7.80;1.00
19292;DHT22;9779;51.756;7.450;2024-03-23T10:00:30;7.80;1.00
19292;DHT22;9779;51.756;7.450;2024-03-23T10:02:57;7.80;99.90
19292;DHT22;9779;51.756;7.450;2024-03-23T10:05:27;7.90;99.90
19292;DHT22;9779;51.756;7.450;2024-03-23T10:07:53;8.10;99.90
19292;DHT22;9779;51.756;7.450;2024-03-23T10:10:18;8.30;1.00
19292;DHT22;9779;51.756;7.450;2024-03-23T10:12:49;8.50;1.00
19292;DHT22;9779;51.756;7.450;2024-03-23T10:15:21;8.60;1.00
19292;DHT22;9779;51.756;7.450;2024-03-23T10:17:48;8.70;99.90
19292;DHT22;9779;51.756;7.450;2024-03-23T10:20:19;8.70;99.90
19292;DHT22;9779;51.756;7.450;2024-03-23T10:22:45;8.70;1.00
19292;DHT22;9779;51.756;7.450;2024-03-23T10:25:11;8.80;1.00
19292;DHT22;9779;51.756;7.450;2024-03-23T10:27:37;8.90;1.00
19292;DHT22;9779;51.756;7.450;2024-03-23T10:30:12;8.70;99.90
19292;DHT22;9779;51.756;7.450;2024-03-23T10:32:40;8.40;99.90
19292;DHT22;9779;51.756;7.450;2024-03-23T10:35:19;8.30;1.00
19292;DHT22;9779;51.756;7.450;2024-03-23T10:37:45;8.40;1.00
19292;DHT22;9779;51.756;7.450;2024-03-23T10:40:15;8.70;61.30
19292;DHT22;9779;51.756;7.450;2024-03-23T10:42:41;9.30;99.90
19292;DHT22;9779;51.756;7.450;2024-03-23T10:45:07;9.30;1.00
19292;DHT22;9779;51.756;7.450;2024-03-23T10:47:37;9.60;1.00
19292;DHT22;9779;51.756;7.450;2024-03-23T10:50:06;10.00;99.90
19292;DHT22;9779;51.756;7.450;2024-03-23T10:52:35;9.80;1.00
19292;DHT22;9779;51.756;7.450;2024-03-23T10:55:04;9.90;1.00
19292;DHT22;9779;51.756;7.450;2024-03-23T10:57:41;9.90;1.00
19292;DHT22;9779;51.756;7.450;2024-03-23T11:00:08;10.00;1.00
19292;DHT22;9779;51.756;7.450;2024-03-23T11:02:36;9.70;1.00
19292;DHT22;9779;51.756;7.450;2024-03-23T11:05:01;9.70;1.00
19292;DHT22;9779;51.756;7.450;2024-03-23T11:09:54;9.50;1.00
19292;DHT22;9779;51.756;7.450;2024-03-23T11:15:06;9.40;1.00
19292;DHT22;9779;51.756;7.450;2024-03-23T11:17:36;9.30;1.00
19292;DHT22;9779;51.756;7.450;2024-03-23T11:20:05;9.20;1.00
19292;DHT22;9779;51.756;7.450;2024-03-23T11:22:44;8.50;1.00
19292;DHT22;9779;51.756;7.450;2024-03-23T11:27:37;7.70;99.90
19292;DHT22;9779;51.756;7.450;2024-03-23T11:30:14;7.40;99.90
19292;DHT22;9779;51.756;7.450;2024-03-23T11:32:42;7.00;1.00
19292;DHT22;9779;51.756;7.450;2024-03-23T11:35:08;7.00;1.00
19292;DHT22;9779;51.756;7.450;2024-03-23T11:37:36;6.90;1.00
19292;DHT22;9779;51.756;7.450;2024-03-23T11:40:16;6.80;99.90
19292;DHT22;9779;51.756;7.450;2024-03-23T11:42:42;6.80;1.00
19292;DHT22;9779;51.756;7.450;2024-03-23T11:45:09;6.60;1.00
19292;DHT22;9779;51.756;7.450;2024-03-23T11:47:35;6.80;1.00
19292;DHT22;9779;51.756;7.450;2024-03-23T11:50:00;7.10;99.90
19292;DHT22;9779;51.756;7.450;2024-03-23T11:52:26;7.40;99.90
19292;DHT22;9779;51.756;7.450;2024-03-23T11:54:51;7.60;99.90
19292;DHT22;9779;51.756;7.450;2024-03-23T11:57:28;7.70;1.00
19292;DHT22;9779;51.756;7.450;2024-03-23T11:59:53;8.00;99.90
19292;DHT22;9779;51.756;7.450;2024-03-23T12:02:19;8.20;1.00
19292;DHT22;9779;51.756;7.450;2024-03-23T12:04:44;8.40;1.00
19292;DHT22;9779;51.756;7.450;2024-03-23T12:07:20;8.70;1.00
19292;DHT22;9779;51.756;7.450;2024-03-23T12:10:08;8.80;99.90
19292;DHT22;9779;51.756;7.450;2024-03-23T12:12:34;8.70;63.40
19292;DHT22;9779;51.756;7.450;2024-03-23T12:15:09;8.60;1.00
19292;DHT22;9779;51.756;7.450;2024-03-23T12:17:35;8.60;99.90
19292;DHT22;9779;51.756;7.450;2024-03-23T12:20:01;8.60;99.90
19292;DHT22;9779;51.756;7.450;2024-03-23T12:22:27;8.60;78.50
19292;DHT22;9779;51.756;7.450;2024-03-23T12:24:52;8.60;81.70
19292;DHT22;9779;51.756;7.450;2024-03-23T12:27:18;8.50;99.90
19292;DHT22;9779;51.756;7.450;2024-03-23T12:29:44;8.50;99.90
19292;DHT22;9779;51.756;7.450;2024-03-23T12:32:12;8.50;99.90
19292;DHT22;9779;51.756;7.450;2024-03-23T12:34:38;8.50;99.90
19292;DHT22;9779;51.756;7.450;2024-03-23T12:37:04;8.70;99.90
19292;DHT22;9779;51.756;7.450;2024-03-23T12:39:29;8.70;99.90
19292;DHT22;9779;51.756;7.450;2024-03-23T12:41:55;9.00;99.90
19292;DHT22;9779;51.756;7.450;2024-03-23T12:44:21;9.30;99.90
19292;DHT22;9779;51.756;7.450;2024-03-23T12:46:47;9.40;99.90
19292;DHT22;9779;51.756;7.450;2024-03-23T12:49:12;9.20;99.90
19292;DHT22;9779;51.756;7.450;2024-03-23T12:51:38;9.10;99.90
19292;DHT22;9779;51.756;7.450;2024-03-23T12:54:04;8.80;99.90
19292;DHT22;9779;51.756;7.450;2024-03-23T12:56:30;8.80;99.90
19292;DHT22;9779;51.756;7.450;2024-03-23T12:58:56;8.50;99.90
19292;DHT22;9779;51.756;7.450;2024-03-23T13:01:23;7.70;99.90
19292;DHT22;9779;51.756;7.450;2024-03-23T13:03:49;7.00;99.90
19292;DHT22;9779;51.756;7.450;2024-03-23T13:06:16;6.50;99.90
19292;DHT22;9779;51.756;7.450;2024-03-23T13:08:44;6.20;1.00
19292;DHT22;9779;51.756;7.450;2024-03-23T13:11:10;6.20;1.00
19292;DHT22;9779;51.756;7.450;2024-03-23T13:13:36;6.30;56.10
19292;DHT22;9779;51.756;7.450;2024-03-23T13:16:02;6.60;99.90
19292;DHT22;9779;51.756;7.450;2024-03-23T13:18:32;7.10;1.00
19292;DHT22;9779;51.756;7.450;2024-03-23T13:20:58;7.60;1.00
19292;DHT22;9779;51.756;7.450;2024-03-23T13:23:24;8.00;99.90
19292;DHT22;9779;51.756;7.450;2024-03-23T13:25:54;8.40;1.00
19292;DHT22;9779;51.756;7.450;2024-03-23T13:28:20;8.50;1.00
19292;DHT22;9779;51.756;7.450;2024-03-23T13:30:55;8.20;99.90
19292;DHT22;9779;51.756;7.450;2024-03-23T13:33:21;8.10;99.90
19292;DHT22;9779;51.756;7.450;2024-03-23T13:38:16;8.10;99.90
19292;DHT22;9779;51.756;7.450;2024-03-23T13:40:54;7.90;99.90
19292;DHT22;9779;51.756;7.450;2024-03-23T13:43:20;8.20;1.00
19292;DHT22;9779;51.756;7.450;2024-03-23T13:45:52;8.70;1.00
19292;DHT22;9779;51.756;7.450;2024-03-23T13:48:26;9.10;1.00
19292;DHT22;9779;51.756;7.450;2024-03-23T13:51:02;9.10;99.90
19292;DHT22;9779;51.756;7.450;2024-03-23T13:53:28;8.90;1.00
19292;DHT22;9779;51.756;7.450;2024-03-23T13:55:54;8.80;99.90
19292;DHT22;9779;51.756;7.450;2024-03-23T13:58:20;9.00;1.00
19292;DHT22;9779;51.756;7.450;2024-03-23T14:00:45;9.20;99.90
19292;DHT22;9779;51.756;7.450;2024-03-23T14:03:12;9.40;99.90
19292;DHT22;9779;51.756;7.450;2024-03-23T14:05:38;9.70;1.00
19292;DHT22;9779;51.756;7.450;2024-03-23T14:08:05;9.70;1.00
19292;DHT22;9779;51.756;7.450;2024-03-23T14:10:31;9.40;1.00
19292;DHT22;9779;51.756;7.450;2024-03-23T14:12:57;9.20;1.00
19292;DHT22;9779;51.756;7.450;2024-03-23T14:15:22;9.00;1.00
19292;DHT22;9779;51.756;7.450;2024-03-23T14:17:49;8.90;1.00
19292;DHT22;9779;51.756;7.450;2024-03-23T14:20:14;8.90;1.00
19292;DHT22;9779;51.756;7.450;2024-03-23T14:22:41;8.80;1.00
19292;DHT22;9779;51.756;7.450;2024-03-23T14:25:07;8.80;1.00
19292;DHT22;9779;51.756;7.450;2024-03-23T14:27:32;9.00;1.00
19292;DHT22;9779;51.756;7.450;2024-03-23T14:29:58;9.00;1.00
19292;DHT22;9779;51.756;7.450;2024-03-23T14:32:23;8.90;1.00
19292;DHT22;9779;51.756;7.450;2024-03-23T14:34:49;8.90;1.00
19292;DHT22;9779;51.756;7.450;2024-03-23T14:37:15;8.70;1.00
19292;DHT22;9779;51.756;7.450;2024-03-23T14:39:43;8.70;1.00
19292;DHT22;9779;51.756;7.450;2024-03-23T14:42:10;8.50;1.00
19292;DHT22;9779;51.756;7.450;2024-03-23T14:44:36;8.90;1.00
19292;DHT22;9779;51.756;7.450;2024-03-23T14:47:01;9.00;1.00
19292;DHT22;9779;51.756;7.450;2024-03-23T14:49:27;8.90;1.00
19292;DHT22;9779;51.756;7.450;2024-03-23T14:51:53;8.80;1.00
19292;DHT22;9779;51.756;7.450;2024-03-23T14:54:18;8.70;1.00
19292;DHT22;9779;51.756;7.450;2024-03-23T14:56:44;8.60;1.00
19292;DHT22;9779;51.756;7.450;2024-03-23T14:59:10;8.50;1.00
19292;DHT22;9779;51.756;7.450;2024-03-23T15:01:35;8.40;1.00
19292;DHT22;9779;51.756;7.450;2024-03-23T15:04:01;8.40;1.00
19292;DHT22;9779;51.756;7.450;2024-03-23T15:06:26;8.80;1.00
19292;DHT22;9779;51.756;7.450;2024-03-23T15:08:52;9.40;1.00
19292;DHT22;9779;51.756;7.450;2024-03-23T15:11:18;9.80;1.00
19292;DHT22;9779;51.756;7.450;2024-03-23T15:13:45;10.00;1.00
19292;DHT22;9779;51.756;7.450;2024-03-23T15:16:16;10.00;1.00
19292;DHT22;9779;51.756;7.450;2024-03-23T15:18:41;10.30;1.00
19292;DHT22;9779;51.756;7.450;2024-03-23T15:21:07;10.20;1.00
19292;DHT22;9779;51.756;7.450;2024-03-23T15:23:36;10.30;1.00
19292;DHT22;9779;51.756;7.450;2024-03-23T15:26:03;10.20;1.00
19292;DHT22;9779;51.756;7.450;2024-03-23T15:28:29;9.90;1.00
19292;DHT22;9779;51.756;7.450;2024-03-23T15:31:07;10.10;1.00
19292;DHT22;9779;51.756;7.450;2024-03-23T15:33:34;9.80;1.00
19292;DHT22;9779;51.756;7.450;2024-03-23T15:36:03;9.70;1.00
19292;DHT22;9779;51.756;7.450;2024-03-23T15:38:30;10.10;1.00
19292;DHT22;9779;51.756;7.450;2024-03-23T15:40:56;10.50;1.00
19292;DHT22;9779;51.756;7.450;2024-03-23T15:43:22;10.90;1.00
19292;DHT22;9779;51.756;7.450;2024-03-23T15:45:57;11.40;1.00
19292;DHT22;9779;51.756;7.450;2024-03-23T15:48:25;11.10;1.00
19292;DHT22;9779;51.756;7.450;2024-03-23T15:50:58;11.10;99.90
19292;DHT22;9779;51.756;7.450;2024-03-23T15:53:25;11.30;1.00
19292;DHT22;9779;51.756;7.450;2024-03-23T15:55:57;11.20;99.90
19292;DHT22;9779;51.756;7.450;2024-03-23T15:58:24;10.90;99.90
19292;DHT22;9779;51.756;7.450;2024-03-23T16:01:07;11.00;99.90
19292;DHT22;9779;51.756;7.450;2024-03-23T16:03:37;10.40;99.90
19292;DHT22;9779;51.756;7.450;2024-03-23T16:06:04;10.30;99.90
19292;DHT22;9779;51.756;7.450;2024-03-23T16:08:30;10.10;99.90
19292;DHT22;9779;51.756;7.450;2024-03-23T16:11:03;10.20;99.90
19292;DHT22;9779;51.756;7.450;2024-03-23T16:13:29;10.50;99.90
19292;DHT22;9779;51.756;7.450;2024-03-23T16:15:58;10.20;99.90
19292;DHT22;9779;51.756;7.450;2024-03-23T16:18:25;10.40;99.90
19292;DHT22;9779;51.756;7.450;2024-03-23T16:20:57;10.20;99.90
19292;DHT22;9779;51.756;7.450;2024-03-23T16:23:23;9.90;99.90
19292;DHT22;9779;51.756;7.450;2024-03-23T16:25:49;9.60;99.90
19292;DHT22;9779;51.756;7.450;2024-03-23T16:28:28;9.40;99.90
19292;DHT22;9779;51.756;7.450;2024-03-23T16:31:02;9.30;99.90
19292;DHT22;9779;51.756;7.450;2024-03-23T16:33:28;9.20;99.90
19292;DHT22;9779;51.756;7.450;2024-03-23T16:38:29;9.10;99.90
19292;DHT22;9779;51.756;7.450;2024-03-23T16:43:28;9.20;99.90
19292;DHT22;9779;51.756;7.450;2024-03-23T16:46:05;9.00;99.90
19292;DHT22;9779;51.756;7.450;2024-03-23T16:48:32;8.90;99.90
19292;DHT22;9779;51.756;7.450;2024-03-23T16:50:59;8.90;99.90
19292;DHT22;9779;51.756;7.450;2024-03-23T16:53:25;8.70;99.90
19292;DHT22;9779;51.756;7.450;2024-03-23T16:55:58;8.80;99.90
19292;DHT22;9779;51.756;7.450;2024-03-23T16:58:28;8.80;99.90
19292;DHT22;9779;51.756;7.450;2024-03-23T17:00:55;8.70;99.90
19292;DHT22;9779;51.756;7.450;2024-03-23T17:03:24;8.60;99.90
19292;DHT22;9779;51.756;7.450;2024-03-23T17:05:51;8.60;99.90
19292;DHT22;9779;51.756;7.450;2024-03-23T17:08:17;8.60;99.90
19292;DHT22;9779;51.756;7.450;2024-03-23T17:10:43;8.50;99.90
19292;DHT22;9779;51.756;7.450;2024-03-23T17:13:09;8.30;1.00
19292;DHT22;9779;51.756;7.450;2024-03-23T17:15:55;8.00;1.00
19292;DHT22;9779;51.756;7.450;2024-03-23T17:18:20;8.00;1.00
19292;DHT22;9779;51.756;7.450;2024-03-23T17:20:46;7.90;1.00
19292;DHT22;9779;51.756;7.450;2024-03-23T17:23:12;7.90;1.00
19292;DHT22;9779;51.756;7.450;2024-03-23T17:25:37;7.70;1.00
19292;DHT22;9779;51.756;7.450;2024-03-23T17:28:04;7.40;1.00
19292;DHT22;9779;51.756;7.450;2024-03-23T17:30:29;7.30;1.00
19292;DHT22;9779;51.756;7.450;2024-03-23T17:32:55;7.20;22.50
19292;DHT22;9779;51.756;7.450;2024-03-23T17:35:21;7.10;99.90
19292;DHT22;9779;51.756;7.450;2024-03-23T17:37:46;7.00;1.00
19292;DHT22;9779;51.756;7.450;2024-03-23T17:40:12;6.80;1.00
19292;DHT22;9779;51.756;7.450;2024-03-23T17:42:39;6.90;99.90
19292;DHT22;9779;51.756;7.450;2024-03-23T17:45:05;6.90;1.00
19292;DHT22;9779;51.756;7.450;2024-03-23T17:47:36;6.90;12.60
19292;DHT22;9779;51.756;7.450;2024-03-23T17:50:02;6.90;1.00
19292;DHT22;9779;51.756;7.450;2024-03-23T17:52:29;6.80;1.00
19292;DHT22;9779;51.756;7.450;2024-03-23T17:54:54;6.90;1.00
19292;DHT22;9779;51.756;7.450;2024-03-23T17:57:21;6.80;1.00
19292;DHT22;9779;51.756;7.450;2024-03-23T17:59:46;6.70;1.00
19292;DHT22;9779;51.756;7.450;2024-03-23T18:02:14;6.70;1.00
19292;DHT22;9779;51.756;7.450;2024-03-23T18:04:41;6.70;1.00
19292;DHT22;9779;51.756;7.450;2024-03-23T18:07:07;6.50;49.60
19292;DHT22;9779;51.756;7.450;2024-03-23T18:09:32;6.50;17.30
19292;DHT22;9779;51.756;7.450;2024-03-23T18:11:58;6.50;1.00
19292;DHT22;9779;51.756;7.450;2024-03-23T18:14:24;6.40;1.00
19292;DHT22;9779;51.756;7.450;2024-03-23T18:16:50;6.30;1.00
19292;DHT22;9779;51.756;7.450;2024-03-23T18:19:16;6.30;1.00
19292;DHT22;9779;51.756;7.450;2024-03-23T18:21:42;6.20;99.90
19292;DHT22;9779;51.756;7.450;2024-03-23T18:24:08;6.20;99.90
19292;DHT22;9779;51.756;7.450;2024-03-23T18:26:33;6.00;99.90
19292;DHT22;9779;51.756;7.450;2024-03-23T18:28:59;6.00;1.00
19292;DHT22;9779;51.756;7.450;2024-03-23T18:31:24;6.00;1.00
19292;DHT22;9779;51.756;7.450;2024-03-23T18:33:50;6.00;1.00
19292;DHT22;9779;51.756;7.450;2024-03-23T18:36:16;6.00;1.00
19292;DHT22;9779;51.756;7.450;2024-03-23T18:38:41;5.90;1.00
19292;DHT22;9779;51.756;7.450;2024-03-23T18:41:07;5.80;1.00
19292;DHT22;9779;51.756;7.450;2024-03-23T18:43:32;5.70;1.00
19292;DHT22;9779;51.756;7.450;2024-03-23T18:45:59;5.70;1.00
19292;DHT22;9779;51.756;7.450;2024-03-23T18:48:25;5.70;1.00
19292;DHT22;9779;51.756;7.450;2024-03-23T18:50:50;5.60;1.00
19292;DHT22;9779;51.756;7.450;2024-03-23T18:53:16;5.50;78.60
19292;DHT22;9779;51.756;7.450;2024-03-23T18:55:54;5.50;99.90
19292;DHT22;9779;51.756;7.450;2024-03-23T18:58:20;5.40;99.90
19292;DHT22;9779;51.756;7.450;2024-03-23T19:00:46;5.30;99.90
19292;DHT22;9779;51.756;7.450;2024-03-23T19:03:12;5.30;1.00
19292;DHT22;9779;51.756;7.450;2024-03-23T19:05:38;5.30;1.00
19292;DHT22;9779;51.756;7.450;2024-03-23T19:08:04;5.30;1.00
19292;DHT22;9779;51.756;7.450;2024-03-23T19:10:30;5.40;1.00
19292;DHT22;9779;51.756;7.450;2024-03-23T19:12:56;5.40;1.00
19292;DHT22;9779;51.756;7.450;2024-03-23T19:15:22;5.30;1.00
19292;DHT22;9779;51.756;7.450;2024-03-23T19:17:49;5.30;1.00
19292;DHT22;9779;51.756;7.450;2024-03-23T19:20:14;5.30;1.00
19292;DHT22;9779;51.756;7.450;2024-03-23T19:22:40;5.20;1.00
19292;DHT22;9779;51.756;7.450;2024-03-23T19:25:06;5.30;99.90
19292;DHT22;9779;51.756;7.450;2024-03-23T19:27:35;5.20;99.90
19292;DHT22;9779;51.756;7.450;2024-03-23T19:30:05;5.20;1.00
19292;DHT22;9779;51.756;7.450;2024-03-23T19:32:31;5.20;1.00
19292;DHT22;9779;51.756;7.450;2024-03-23T19:34:56;5.20;1.00
19292;DHT22;9779;51.756;7.450;2024-03-23T19:37:22;5.20;1.00
19292;DHT22;9779;51.756;7.450;2024-03-23T19:39:47;5.10;1.00
19292;DHT22;9779;51.756;7.450;2024-03-23T19:42:13;5.20;1.00
19292;DHT22;9779;51.756;7.450;2024-03-23T19:44:43;5.10;12.50
19292;DHT22;9779;51.756;7.450;2024-03-23T19:47:09;5.10;99.90
19292;DHT22;9779;51.756;7.450;2024-03-23T19:49:34;5.10;99.90
19292;DHT22;9779;51.756;7.450;2024-03-23T19:52:00;5.10;99.90
19292;DHT22;9779;51.756;7.450;2024-03-23T19:54:27;5.10;1.00
19292;DHT22;9779;51.756;7.450;2024-03-23T19:56:53;5.10;1.00
19292;DHT22;9779;51.756;7.450;2024-03-23T19:59:20;5.10;99.90
19292;DHT22;9779;51.756;7.450;2024-03-23T20:01:46;5.00;99.90
19292;DHT22;9779;51.756;7.450;2024-03-23T20:04:12;5.00;99.90
19292;DHT22;9779;51.756;7.450;2024-03-23T20:06:38;5.00;1.00
19292;DHT22;9779;51.756;7.450;2024-03-23T20:09:05;5.00;44.70
19292;DHT22;9779;51.756;7.450;2024-03-23T20:11:30;4.90;1.00
19292;DHT22;9779;51.756;7.450;2024-03-23T20:13:56;4.90;99.90
19292;DHT22;9779;51.756;7.450;2024-03-23T20:16:21;5.00;99.90
19292;DHT22;9779;51.756;7.450;2024-03-23T20:18:55;5.00;99.90
19292;DHT22;9779;51.756;7.450;2024-03-23T20:21:21;4.90;1.00
19292;DHT22;9779;51.756;7.450;2024-03-23T20:23:47;4.90;1.00
19292;DHT22;9779;51.756;7.450;2024-03-23T20:26:13;4.90;1.00
19292;DHT22;9779;51.756;7.450;2024-03-23T20:28:38;4.80;99.90
19292;DHT22;9779;51.756;7.450;2024-03-23T20:31:04;4.90;1.00
19292;DHT22;9779;51.756;7.450;2024-03-23T20:33:31;4.90;1.00
19292;DHT22;9779;51.756;7.450;2024-03-23T20:35:56;4.90;99.90
19292;DHT22;9779;51.756;7.450;2024-03-23T20:38:22;4.90;99.90
19292;DHT22;9779;51.756;7.450;2024-03-23T20:40:55;4.80;1.00
19292;DHT22;9779;51.756;7.450;2024-03-23T20:43:26;4.90;1.00
19292;DHT22;9779;51.756;7.450;2024-03-23T20:46:00;4.80;99.90
19292;DHT22;9779;51.756;7.450;2024-03-23T20:48:30;4.80;99.90